Time;durP1;ratioP1;P1;durP2;ratioP2;P2;SDS_P1;SDS_P2;PMS_P1;PMS_P2;Temp;Humidity;BMP_temperature;BMP_pressure;BME280_temperature;BME280_humidity;BME280_pressure;Samples;Min_cycle;Max_cycle;Signal;HPM_P1;HPM_P2
2022/03/28 00:00:39;;;;;;;12.05;6.75;;;;;;;-149.78;100.00;50236.75;5078901;28;21253;-70
2022/03/28 00:03:05;;;;;;;15.05;7.28;;;;;;;-149.78;100.00;50246.53;5077975;28;20050;-70
2022/03/28 00:05:32;;;;;;;12.13;6.82;;;;;;;-149.78;100.00;50252.41;5078402;28;20533;-70
2022/03/28 00:07:58;;;;;;;13.50;7.25;;;;;;;-149.78;100.00;50225.03;5077405;28;20639;-70
2022/03/28 00:10:24;;;;;;;11.65;7.43;;;;;;;-149.78;100.00;50252.41;5078433;28;20867;-70
2022/03/28 00:12:50;;;;;;;14.52;7.70;;;;;;;-149.78;100.00;50240.66;5078527;28;20076;-70
2022/03/28 00:15:17;;;;;;;14.55;8.10;;;;;;;-149.78;100.00;50230.88;5076584;28;20034;-69
2022/03/28 00:17:43;;;;;;;13.75;7.63;;;;;;;-149.78;100.00;50271.97;5078697;28;20039;-70
2022/03/28 00:20:11;;;;;;;15.77;7.95;;;;;;;-149.78;100.00;50268.03;5062123;28;21092;-71
2022/03/28 00:22:38;;;;;;;13.52;8.27;;;;;;;-149.78;100.00;50217.19;5079724;28;20455;-70
2022/03/28 00:25:05;;;;;;;19.42;8.52;;;;;;;-149.78;100.00;50248.50;5061467;28;20055;-70
2022/03/28 00:27:31;;;;;;;14.43;7.47;;;;;;;-149.78;100.00;50252.41;5078402;28;20032;-70
2022/03/28 00:29:56;;;;;;;12.20;7.38;;;;;;;-149.78;100.00;50217.19;5080021;28;20063;-70
2022/03/28 00:32:22;;;;;;;14.60;8.32;;;;;;;-149.78;100.00;50252.41;5059570;28;20040;-70
2022/03/28 00:34:48;;;;;;;14.90;8.95;;;;;;;-149.78;100.00;50258.28;5077908;28;20024;-69
2022/03/28 00:37:14;;;;;;;16.33;8.63;;;;;;;-149.78;100.00;50264.13;5079318;28;20032;-70
2022/03/28 00:39:39;;;;;;;14.00;8.10;;;;;;;-149.78;100.00;50225.03;5079286;28;20036;-70
2022/03/28 00:42:05;;;;;;;15.63;8.43;;;;;;;-149.78;100.00;50209.38;5076456;28;20024;-70
2022/03/28 00:44:31;;;;;;;13.25;8.70;;;;;;;-149.78;100.00;50225.03;5078062;28;20035;-71
2022/03/28 00:46:58;;;;;;;15.20;8.65;;;;;;;-149.78;100.00;50215.25;5066420;28;20043;-70
2022/03/28 00:49:23;;;;;;;15.07;8.98;;;;;;;-149.78;100.00;50256.31;5076157;28;20097;-70
2022/03/28 00:51:50;;;;;;;13.48;8.02;;;;;;;-149.78;100.00;50240.66;5076704;28;20395;-70
2022/03/28 00:54:16;;;;;;;15.60;8.90;;;;;;;-149.78;100.00;50221.13;5076274;28;20051;-70
2022/03/28 00:56:43;;;;;;;17.52;9.05;;;;;;;-149.78;100.00;50287.59;5077844;28;20101;-70
2022/03/28 00:59:10;;;;;;;16.40;9.15;;;;;;;-149.78;100.00;50277.81;5078415;28;20040;-70
2022/03/28 01:01:36;;;;;;;17.52;9.50;;;;;;;-149.78;100.00;50262.19;5080840;28;20050;-70
2022/03/28 01:04:04;;;;;;;19.00;9.25;;;;;;;-149.78;100.00;50291.50;5092008;28;20481;-70
2022/03/28 01:06:32;;;;;;;14.50;8.88;;;;;;;-149.78;100.00;50268.03;5087755;28;20044;-70
2022/03/28 01:08:57;;;;;;;18.80;9.70;;;;;;;-149.78;100.00;50256.31;5075539;28;20076;-70
2022/03/28 01:11:26;;;;;;;18.02;9.85;;;;;;;-149.78;100.00;50252.41;5073353;28;20120;-70
2022/03/28 01:13:53;;;;;;;16.52;9.43;;;;;;;-149.78;100.00;50270.00;5072177;28;20044;-70
2022/03/28 01:16:19;;;;;;;18.15;9.05;;;;;;;-149.78;100.00;50260.22;5073328;28;20033;-70
2022/03/28 01:18:48;;;;;;;17.33;9.52;;;;;;;-149.78;100.00;50268.03;5072657;28;20119;-70
2022/03/28 01:21:16;;;;;;;20.42;10.45;;;;;;;-149.78;100.00;50279.78;5072868;28;20024;-70
2022/03/28 01:23:42;;;;;;;15.73;9.38;;;;;;;-149.78;100.00;50271.97;5072973;28;20042;-70
2022/03/28 01:26:08;;;;;;;20.02;10.52;;;;;;;-149.78;100.00;50271.97;5082086;28;20042;-70
2022/03/28 01:28:34;;;;;;;18.27;10.43;;;;;;;-149.78;100.00;50262.19;5047625;28;20120;-70
2022/03/28 01:31:00;;;;;;;17.55;9.73;;;;;;;-149.78;100.00;50244.59;5045578;28;20024;-69
2022/03/28 01:33:26;;;;;;;19.00;10.50;;;;;;;-149.78;100.00;50217.19;5073361;28;20163;-70
2022/03/28 01:35:54;;;;;;;17.00;9.60;;;;;;;-149.78;100.00;50248.50;5075331;28;20044;-69
2022/03/28 01:38:21;;;;;;;16.33;9.50;;;;;;;-149.78;100.00;50266.09;5074503;28;20062;-69
2022/03/28 01:40:50;;;;;;;17.80;10.45;;;;;;;-149.78;100.00;50279.78;5073932;28;20032;-70
2022/03/28 01:43:17;;;;;;;18.40;10.23;;;;;;;-149.78;100.00;50268.03;5075239;28;20040;-70
2022/03/28 01:45:43;;;;;;;18.00;9.95;;;;;;;-149.78;100.00;50277.81;5077092;28;20398;-70
2022/03/28 01:48:09;;;;;;;19.90;10.38;;;;;;;-149.78;100.00;50279.78;5086875;28;20036;-70
2022/03/28 01:50:36;;;;;;;19.13;10.02;;;;;;;-149.78;100.00;50256.31;5076682;28;20024;-70
2022/03/28 01:53:02;;;;;;;15.75;10.15;;;;;;;-149.78;100.00;50271.97;5074739;28;20032;-70
2022/03/28 01:55:28;;;;;;;22.63;10.95;;;;;;;-149.78;100.00;50287.59;5075122;28;20039;-70
2022/03/28 01:57:54;;;;;;;19.27;10.35;;;;;;;-149.78;100.00;50279.78;5077083;28;20032;-70
2022/03/28 02:00:23;;;;;;;19.48;10.05;;;;;;;-149.78;100.00;50256.31;5076470;28;20047;-70
2022/03/28 02:02:49;;;;;;;25.88;12.40;;;;;;;-149.78;100.00;50268.03;5076182;28;20128;-70
2022/03/28 02:05:15;;;;;;;24.02;12.02;;;;;;;-149.78;100.00;50275.88;5075941;28;20515;-70
2022/03/28 02:07:47;;;;;;;23.55;12.35;;;;;;;-149.78;100.00;50260.22;5076615;28;20678;-69
2022/03/28 02:10:15;;;;;;;23.75;11.52;;;;;;;-149.78;100.00;50248.50;5077246;28;20475;-70
2022/03/28 02:12:42;;;;;;;23.75;12.32;;;;;;;-149.78;100.00;50252.41;5077814;28;20386;-70
2022/03/28 02:15:10;;;;;;;22.40;12.32;;;;;;;-149.78;100.00;50260.22;5077356;28;20023;-69
2022/03/28 02:17:39;;;;;;;26.38;12.77;;;;;;;-149.78;100.00;50283.69;5076520;28;20070;-70
2022/03/28 02:20:07;;;;;;;22.63;12.07;;;;;;;-149.78;100.00;50260.22;5077679;28;20034;-70
2022/03/28 02:22:33;;;;;;;26.50;12.55;;;;;;;-149.78;100.00;50289.56;5076534;28;20396;-69
2022/03/28 02:24:59;;;;;;;22.88;12.38;;;;;;;-149.78;100.00;50260.22;5076761;28;20032;-70
2022/03/28 02:27:24;;;;;;;23.92;12.10;;;;;;;-149.78;100.00;50232.84;5075475;28;20364;-70
2022/03/28 02:29:50;;;;;;;22.42;11.35;;;;;;;-149.78;100.00;50271.97;5076222;28;20055;-70
2022/03/28 02:32:16;;;;;;;23.40;11.68;;;;;;;-149.78;100.00;50256.31;5075665;28;20399;-70
2022/03/28 02:34:41;;;;;;;26.23;12.55;;;;;;;-149.78;100.00;50252.41;5077111;28;20093;-69
2022/03/28 02:37:07;;;;;;;24.20;12.57;;;;;;;-149.78;100.00;50256.31;5074833;28;20793;-70
2022/03/28 02:39:33;;;;;;;24.42;12.73;;;;;;;-149.78;100.00;50303.25;5042101;28;20523;-70
2022/03/28 02:41:59;;;;;;;24.67;12.77;;;;;;;-149.78;100.00;50283.69;5076861;28;20169;-70
2022/03/28 02:44:24;;;;;;;25.45;13.00;;;;;;;-149.78;100.00;50277.81;5076522;28;20384;-70
2022/03/28 02:46:50;;;;;;;24.55;13.15;;;;;;;-149.78;100.00;50291.50;5085361;28;20040;-70
2022/03/28 02:49:18;;;;;;;21.92;12.30;;;;;;;-149.78;100.00;50303.25;5091511;28;20036;-70
2022/03/28 02:51:44;;;;;;;23.52;12.85;;;;;;;-149.78;100.00;50242.63;5090130;28;20112;-70
2022/03/28 02:54:10;;;;;;;24.65;12.73;;;;;;;-149.78;100.00;50268.03;5089294;28;20147;-70
2022/03/28 02:56:36;;;;;;;23.58;12.95;;;;;;;-149.78;100.00;50283.69;5091118;28;20174;-70
2022/03/28 02:59:02;;;;;;;24.75;12.85;;;;;;;-149.78;100.00;50291.50;5089742;28;20028;-70
2022/03/28 03:01:28;;;;;;;26.23;13.15;;;;;;;-149.78;100.00;50264.13;5091942;28;20032;-70
2022/03/28 03:03:54;;;;;;;25.33;12.70;;;;;;;-149.78;100.00;50240.66;5090500;28;20036;-69
2022/03/28 03:06:22;;;;;;;26.38;12.75;;;;;;;-149.78;100.00;50262.19;5074061;28;20036;-70
2022/03/28 03:08:48;;;;;;;25.20;12.73;;;;;;;-149.78;100.00;50281.75;5091778;28;20386;-70
2022/03/28 03:11:14;;;;;;;24.25;12.52;;;;;;;-149.78;100.00;50260.22;5091831;28;20043;-70
2022/03/28 03:13:39;;;;;;;22.05;11.68;;;;;;;-149.78;100.00;50256.31;5084427;28;20032;-70
2022/03/28 03:16:05;;;;;;;24.83;12.10;;;;;;;-149.78;100.00;50287.59;5088655;28;20028;-70
2022/03/28 03:18:31;;;;;;;22.20;12.15;;;;;;;-149.78;100.00;50303.25;5095859;28;20023;-70
2022/03/28 03:20:58;;;;;;;24.35;12.90;;;;;;;-149.78;100.00;50244.59;5095856;28;20028;-70
2022/03/28 03:23:24;;;;;;;25.30;13.73;;;;;;;-149.78;100.00;50293.47;5095752;28;20360;-70
2022/03/28 03:25:50;;;;;;;22.63;12.48;;;;;;;-149.78;100.00;50279.78;5077630;28;20031;-70
2022/03/28 03:28:16;;;;;;;22.92;12.85;;;;;;;-149.78;100.00;50256.31;5056320;28;20029;-69
2022/03/28 03:30:43;;;;;;;22.73;13.10;;;;;;;-149.78;100.00;50279.78;5073692;28;20123;-70
2022/03/28 03:33:09;;;;;;;22.70;12.73;;;;;;;-149.78;100.00;50252.41;5075249;28;20123;-70
2022/03/28 03:35:34;;;;;;;25.35;13.70;;;;;;;-149.78;100.00;50252.41;5074187;28;20033;-71
2022/03/28 03:38:00;;;;;;;25.65;14.00;;;;;;;-149.78;100.00;50277.81;5056679;28;20483;-69
2022/03/28 03:40:26;;;;;;;28.00;14.07;;;;;;;-149.78;100.00;50277.81;5075222;28;20032;-69
2022/03/28 03:42:52;;;;;;;27.73;14.35;;;;;;;-149.78;100.00;50244.59;5057217;28;20037;-70
2022/03/28 03:45:18;;;;;;;25.80;13.77;;;;;;;-149.78;100.00;50275.88;5074916;28;20040;-70
2022/03/28 03:47:44;;;;;;;28.15;15.15;;;;;;;-149.78;100.00;50279.78;5069979;28;20089;-70
2022/03/28 03:50:10;;;;;;;23.65;14.52;;;;;;;-149.78;100.00;50268.03;5086596;28;20043;-70
2022/03/28 03:52:36;;;;;;;31.60;15.05;;;;;;;-149.78;100.00;50287.59;5087402;28;20027;-70
2022/03/28 03:55:02;;;;;;;29.27;15.00;;;;;;;-149.78;100.00;50279.78;5085412;28;20737;-69
2022/03/28 03:57:28;;;;;;;27.38;15.52;;;;;;;-149.78;100.00;50271.97;5085698;28;20127;-70
2022/03/28 03:59:54;;;;;;;26.38;15.13;;;;;;;-149.78;100.00;50252.41;5086536;28;20139;-70
2022/03/28 04:02:20;;;;;;;27.00;15.05;;;;;;;-149.78;100.00;50273.91;5086471;28;20032;-70
2022/03/28 04:04:46;;;;;;;27.15;14.90;;;;;;;-149.78;100.00;50303.25;5086608;28;20040;-69
2022/03/28 04:07:13;;;;;;;26.67;14.88;;;;;;;-149.78;100.00;50275.88;5086087;28;20040;-69
2022/03/28 04:09:41;;;;;;;29.35;15.73;;;;;;;-149.78;100.00;50260.22;5085169;28;20044;-70
2022/03/28 04:12:08;;;;;;;26.17;14.73;;;;;;;-149.78;100.00;50236.75;5086004;28;20036;-70
2022/03/28 04:14:43;;;;;;;30.23;16.88;;;;;;;-149.78;100.00;50285.66;5084914;28;20046;-70
2022/03/28 04:17:09;;;;;;;28.35;15.95;;;;;;;-149.78;100.00;50303.25;5086103;28;20028;-69
2022/03/28 04:19:36;;;;;;;29.88;15.60;;;;;;;-149.78;100.00;50291.50;5084733;28;20051;-71
2022/03/28 04:22:02;;;;;;;27.50;16.02;;;;;;;-149.78;100.00;50279.78;5085022;28;20085;-70
2022/03/28 04:24:28;;;;;;;27.05;15.45;;;;;;;-149.78;100.00;50293.47;5084606;28;20044;-69
2022/03/28 04:26:54;;;;;;;25.52;15.13;;;;;;;-149.78;100.00;50295.44;5082821;28;20032;-69
2022/03/28 04:29:19;;;;;;;28.90;15.93;;;;;;;-149.78;100.00;50271.97;5084097;28;20051;-69
2022/03/28 04:31:45;;;;;;;28.08;15.02;;;;;;;-149.78;100.00;50281.75;5084200;28;20040;-69
2022/03/28 04:34:10;;;;;;;31.95;16.23;;;;;;;-149.78;100.00;50283.69;5082862;28;20039;-70
2022/03/28 04:36:38;;;;;;;26.35;15.48;;;;;;;-149.78;100.00;50271.97;5082931;28;20032;-70
2022/03/28 04:39:05;;;;;;;28.92;16.77;;;;;;;-149.78;100.00;50260.22;5065571;28;20063;-70
2022/03/28 04:41:31;;;;;;;27.00;15.60;;;;;;;-149.78;100.00;50217.19;5083486;28;20036;-70
2022/03/28 04:43:57;;;;;;;30.55;16.50;;;;;;;-149.78;100.00;50287.59;5082137;28;20043;-69
2022/03/28 04:46:23;;;;;;;27.30;15.18;;;;;;;-149.78;100.00;50240.66;5086854;28;20374;-69
2022/03/28 04:48:49;;;;;;;26.80;15.50;;;;;;;-149.78;100.00;50252.41;5094071;28;20377;-70
2022/03/28 04:51:15;;;;;;;31.17;16.40;;;;;;;-149.78;100.00;50279.78;5093970;28;20047;-70
2022/03/28 04:53:41;;;;;;;28.65;15.48;;;;;;;-149.78;100.00;50289.56;5093914;28;20043;-69
2022/03/28 04:56:06;;;;;;;29.63;16.60;;;;;;;-149.78;100.00;50260.22;5085464;28;20043;-70
2022/03/28 04:58:32;;;;;;;30.95;17.73;;;;;;;-149.78;100.00;50297.38;5085828;28;20038;-69
2022/03/28 05:00:58;;;;;;;30.92;17.42;;;;;;;-149.78;100.00;50264.13;5085441;28;20035;-69
2022/03/28 05:03:23;;;;;;;29.67;16.52;;;;;;;-149.78;100.00;50264.13;5085555;28;20036;-70
2022/03/28 05:05:50;;;;;;;30.85;17.23;;;;;;;-149.78;100.00;50268.03;5085110;28;20036;-69
2022/03/28 05:08:15;;;;;;;31.17;17.58;;;;;;;-149.78;100.00;50283.69;5085125;28;20039;-70
2022/03/28 05:10:41;;;;;;;32.10;18.15;;;;;;;-149.78;100.00;50309.13;5067711;28;20542;-69
2022/03/28 05:13:07;;;;;;;31.40;17.17;;;;;;;-149.78;100.00;50279.78;5066757;28;20051;-70
2022/03/28 05:15:32;;;;;;;33.25;17.85;;;;;;;-149.78;100.00;50252.41;5084173;28;20346;-69
2022/03/28 05:17:58;;;;;;;30.05;16.50;;;;;;;-149.78;100.00;50250.44;5050456;28;20068;-70
2022/03/28 05:20:24;;;;;;;32.97;17.13;;;;;;;-149.78;100.00;50260.22;5085358;28;20028;-69
2022/03/28 05:22:49;;;;;;;30.63;17.02;;;;;;;-149.78;100.00;50264.13;5084848;28;20057;-70
2022/03/28 05:25:15;;;;;;;32.97;17.42;;;;;;;-149.78;100.00;50279.78;5084834;28;20368;-70
2022/03/28 05:27:45;;;;;;;30.67;17.73;;;;;;;-149.78;100.00;50262.19;5083659;28;20368;-69
2022/03/28 05:30:12;;;;;;;32.75;18.40;;;;;;;-149.78;100.00;50221.13;5082849;28;20138;-70
2022/03/28 05:32:39;;;;;;;31.17;17.17;;;;;;;-149.78;100.00;50279.78;5084759;28;20553;-70
2022/03/28 05:35:06;;;;;;;33.47;17.60;;;;;;;-149.78;100.00;50252.41;5083076;28;20039;-69
2022/03/28 05:37:32;;;;;;;34.03;18.15;;;;;;;-149.78;100.00;50258.28;5081504;28;20032;-69
2022/03/28 05:39:58;;;;;;;33.30;18.15;;;;;;;-149.78;100.00;50275.88;5064397;28;20508;-69
2022/03/28 05:42:23;;;;;;;29.00;17.30;;;;;;;-149.78;100.00;50283.69;5084228;28;20460;-69
2022/03/28 05:44:49;;;;;;;33.28;17.77;;;;;;;-149.78;100.00;50295.44;5081986;28;20030;-70
2022/03/28 05:47:15;;;;;;;33.53;17.77;;;;;;;-149.78;100.00;50264.13;5090457;28;20032;-69
2022/03/28 05:49:40;;;;;;;31.95;16.73;;;;;;;-149.78;100.00;50264.13;5084440;28;20067;-69
2022/03/28 05:52:06;;;;;;;33.75;18.92;;;;;;;-149.78;100.00;50270.00;5081996;28;20058;-69
2022/03/28 05:54:33;;;;;;;34.70;18.23;;;;;;;-149.78;100.00;50291.50;5082247;28;20040;-69
2022/03/28 05:56:59;;;;;;;32.28;18.10;;;;;;;-149.78;100.00;50314.97;5083524;28;20117;-70
2022/03/28 05:59:25;;;;;;;31.92;18.00;;;;;;;-149.78;100.00;50260.22;5082902;28;20051;-70
2022/03/28 06:01:51;;;;;;;32.28;16.98;;;;;;;-149.78;100.00;50295.44;5082327;28;20058;-69
2022/03/28 06:04:17;;;;;;;34.15;19.00;;;;;;;-149.78;100.00;50228.94;5082170;28;20044;-69
2022/03/28 06:06:43;;;;;;;37.35;18.67;;;;;;;-149.78;100.00;50283.69;5065317;28;20391;-69
2022/03/28 06:09:10;;;;;;;32.55;17.95;;;;;;;-149.78;100.00;50287.59;5078128;28;20055;-69
2022/03/28 06:11:42;;;;;;;34.97;18.77;;;;;;;-149.78;100.00;50289.56;5063670;28;20036;-69
2022/03/28 06:14:09;;;;;;;34.33;18.75;;;;;;;-149.78;100.00;50262.19;5081190;28;20502;-70
2022/03/28 06:16:35;;;;;;;31.63;17.85;;;;;;;-149.78;100.00;50268.03;5078914;28;20090;-69
2022/03/28 06:19:02;;;;;;;32.75;17.45;;;;;;;-149.78;100.00;50256.31;5079281;28;20043;-69
2022/03/28 06:21:30;;;;;;;35.40;19.55;;;;;;;-149.78;100.00;50295.44;5079491;28;20055;-66
2022/03/28 06:24:00;;;;;;;32.00;17.55;;;;;;;-149.78;100.00;50293.47;5078613;28;20043;-68
2022/03/28 06:26:26;;;;;;;30.65;17.30;;;;;;;-149.78;100.00;50248.50;5078054;28;20024;-69
2022/03/28 06:28:51;;;;;;;35.53;17.58;;;;;;;-149.78;100.00;50262.19;5080838;28;20082;-71
2022/03/28 06:31:17;;;;;;;33.15;18.23;;;;;;;-149.78;100.00;50268.03;5080499;28;20036;-72
2022/03/28 06:33:44;;;;;;;32.22;18.23;;;;;;;-149.78;100.00;50279.78;5082276;28;20024;-71
2022/03/28 06:36:10;;;;;;;33.35;18.17;;;;;;;-149.78;100.00;50283.69;5084723;28;20063;-71
2022/03/28 06:38:36;;;;;;;35.13;19.20;;;;;;;-149.78;100.00;50252.41;5079271;28;20103;-70
2022/03/28 06:41:02;;;;;;;33.28;18.70;;;;;;;-149.78;100.00;50268.03;5077996;28;20055;-70
2022/03/28 06:43:28;;;;;;;33.40;18.23;;;;;;;-149.78;100.00;50279.78;5080235;28;20028;-71
2022/03/28 06:45:54;;;;;;;32.55;17.65;;;;;;;-149.78;100.00;50248.50;5079231;28;20388;-70
2022/03/28 06:48:20;;;;;;;30.30;17.60;;;;;;;-149.78;100.00;50275.88;5073723;28;20124;-70
2022/03/28 06:50:46;;;;;;;33.22;17.73;;;;;;;-149.78;100.00;50273.91;5075308;28;20372;-70
2022/03/28 06:53:12;;;;;;;34.42;18.25;;;;;;;-149.78;100.00;50291.50;5081564;28;20043;-71
2022/03/28 06:55:38;;;;;;;32.75;18.27;;;;;;;-149.78;100.00;50240.66;5070249;28;20082;-70
2022/03/28 06:58:04;;;;;;;34.50;18.90;;;;;;;-149.78;100.00;50252.41;5084315;28;20032;-71
2022/03/28 07:00:29;;;;;;;34.38;19.13;;;;;;;-149.78;100.00;50256.31;5071495;28;20029;-69
2022/03/28 07:02:55;;;;;;;34.78;18.35;;;;;;;-149.78;100.00;50281.75;5070832;28;20139;-71
2022/03/28 07:05:21;;;;;;;36.40;20.38;;;;;;;-149.78;100.00;50242.63;5091722;28;20120;-71
2022/03/28 07:07:48;;;;;;;36.05;19.27;;;;;;;-149.78;100.00;50248.50;5090261;28;20460;-71
2022/03/28 07:10:16;;;;;;;37.33;19.48;;;;;;;-149.78;100.00;50225.03;5080490;28;20440;-71
2022/03/28 07:12:43;;;;;;;34.55;19.00;;;;;;;-149.78;100.00;50291.50;5072631;28;20039;-71
2022/03/28 07:15:10;;;;;;;37.55;20.85;;;;;;;-149.78;100.00;50260.22;5063250;28;20028;-71
2022/03/28 07:17:54;;;;;;;35.72;19.58;;;;;;;-149.78;100.00;50283.69;5069219;28;20040;-71
2022/03/28 07:20:24;;;;;;;37.38;20.05;;;;;;;-149.78;100.00;50240.66;5076075;28;20371;-71
2022/03/28 07:22:50;;;;;;;38.13;20.25;;;;;;;-149.78;100.00;50256.31;5073571;28;20368;-71
2022/03/28 07:25:16;;;;;;;37.35;20.48;;;;;;;-149.78;100.00;50279.78;5085111;28;20344;-72
2022/03/28 07:27:42;;;;;;;33.92;19.20;;;;;;;-149.78;100.00;50264.13;5084723;28;20031;-71
2022/03/28 07:30:09;;;;;;;36.22;19.98;;;;;;;-149.78;100.00;50271.97;5075365;28;20539;-72
2022/03/28 07:32:35;;;;;;;37.05;18.85;;;;;;;-149.78;100.00;50226.97;5079672;28;20031;-72
2022/03/28 07:35:02;;;;;;;31.75;17.98;;;;;;;-149.78;100.00;50279.78;5081076;28;20107;-72
2022/03/28 07:37:28;;;;;;;27.70;16.20;;;;;;;-149.78;100.00;50252.41;5091112;28;20040;-72
2022/03/28 07:39:54;;;;;;;33.17;17.63;;;;;;;-149.78;100.00;50279.78;5088810;28;20036;-72
2022/03/28 07:42:20;;;;;;;36.00;18.52;;;;;;;-149.78;100.00;50244.59;5084593;28;20028;-72
2022/03/28 07:44:47;;;;;;;30.08;16.85;;;;;;;-149.78;100.00;50254.34;5090167;28;20043;-72
2022/03/28 07:47:13;;;;;;;31.77;17.65;;;;;;;-149.78;100.00;50275.88;5085766;28;20049;-71
2022/03/28 07:49:39;;;;;;;36.53;17.83;;;;;;;-149.78;100.00;50264.13;5063154;28;20060;-72
2022/03/28 07:52:07;;;;;;;29.73;17.10;;;;;;;-149.78;100.00;50248.50;5077507;28;20074;-71
2022/03/28 07:54:33;;;;;;;39.35;18.95;;;;;;;-149.78;100.00;50232.84;5077812;28;20028;-71
2022/03/28 07:56:59;;;;;;;40.40;19.45;;;;;;;-149.78;100.00;50248.50;5079105;28;20553;-71
2022/03/28 07:59:25;;;;;;;37.63;18.98;;;;;;;-149.78;100.00;50240.66;5070302;28;20032;-71
2022/03/28 08:01:51;;;;;;;34.95;17.85;;;;;;;-149.78;100.00;50187.88;5070248;28;20542;-71
2022/03/28 08:04:17;;;;;;;40.45;18.58;;;;;;;-149.78;100.00;50178.09;5073515;28;20400;-71
2022/03/28 08:06:43;;;;;;;32.28;18.10;;;;;;;-149.78;100.00;50166.34;5073670;28;20033;-69
2022/03/28 08:09:09;;;;;;;33.13;17.50;;;;;;;-149.78;100.00;50158.53;5074641;28;20064;-69
2022/03/28 08:11:35;;;;;;;35.10;18.85;;;;;;;-149.78;100.00;50154.63;5077969;28;20144;-70
2022/03/28 08:14:03;;;;;;;37.08;19.55;;;;;;;-149.78;100.00;50135.06;5074127;28;20097;-70
2022/03/28 08:16:30;;;;;;;39.33;20.17;;;;;;;-149.78;100.00;50158.53;5075798;28;20039;-70
2022/03/28 08:18:56;;;;;;;43.63;21.55;;;;;;;-149.78;100.00;50142.88;5088189;28;20074;-70
2022/03/28 08:21:22;;;;;;;41.88;21.05;;;;;;;-149.78;100.00;50146.81;5084125;28;20476;-70
2022/03/28 08:23:47;;;;;;;38.97;21.00;;;;;;;-149.78;100.00;50099.88;5082025;28;20028;-70
2022/03/28 08:26:13;;;;;;;39.17;21.67;;;;;;;-149.78;100.00;50064.66;5090200;28;20426;-70
2022/03/28 08:28:39;;;;;;;38.28;20.38;;;;;;;-149.78;100.00;50043.16;5080787;28;20107;-71
2022/03/28 08:31:06;;;;;;;33.50;19.65;;;;;;;-149.78;100.00;50009.91;5074932;28;20039;-71
2022/03/28 08:33:32;;;;;;;37.60;20.55;;;;;;;-149.78;84.55;50013.81;5074931;28;20098;-71
2022/03/28 08:35:58;;;;;;;33.67;19.92;;;;;;;-149.78;73.44;49966.88;5094420;28;20440;-71
2022/03/28 08:38:24;;;;;;;33.13;20.10;;;;;;;-149.78;68.78;49990.34;5075745;28;20031;-70
2022/03/28 08:40:50;;;;;;;34.78;20.30;;;;;;;-149.78;68.05;50029.47;5077488;28;20020;-71
2022/03/28 08:43:19;;;;;;;33.90;20.15;;;;;;;-149.78;64.23;50006.00;5057425;28;20187;-71
2022/03/28 08:45:45;;;;;;;33.25;20.33;;;;;;;-149.78;60.30;49966.88;5080552;28;20116;-71
2022/03/28 08:48:13;;;;;;;31.25;19.70;;;;;;;-149.78;58.86;49966.88;5091019;28;20040;-71
2022/03/28 08:50:43;;;;;;;30.75;19.27;;;;;;;-149.78;57.35;49970.78;5073676;28;20629;-71
2022/03/28 08:53:09;;;;;;;30.90;19.80;;;;;;;-149.78;52.78;49935.59;5076410;28;20044;-71
2022/03/28 08:55:35;;;;;;;32.25;19.65;;;;;;;-149.78;52.82;49974.72;5081778;28;20085;-71
2022/03/28 08:58:00;;;;;;;30.15;19.77;;;;;;;-149.78;53.48;49970.78;5074348;28;20045;-71
2022/03/28 09:00:26;;;;;;;32.03;19.67;;;;;;;-149.78;57.93;50023.59;5092153;28;20058;-70
2022/03/28 09:02:57;;;;;;;34.72;20.92;;;;;;;-149.78;61.32;50054.88;5088273;28;20426;-71
2022/03/28 09:05:31;;;;;;;31.58;19.90;;;;;;;-149.78;57.49;49982.53;5077956;28;20036;-71
2022/03/28 09:07:58;;;;;;;32.70;20.13;;;;;;;-149.78;57.59;50009.91;5081092;28;20063;-70
2022/03/28 09:10:27;;;;;;;34.03;20.30;;;;;;;-149.78;55.28;50017.72;5083424;28;20067;-71
2022/03/28 09:13:02;;;;;;;43.95;26.00;;;;;;;-149.78;57.33;50052.94;5086118;28;20023;-71
2022/03/28 09:15:55;;;;;;;34.78;22.17;;;;;;;-149.78;57.04;49990.34;5080999;28;20097;-71
2022/03/28 09:18:26;;;;;;;36.55;20.80;;;;;;;-149.78;53.76;50002.09;5080124;28;20166;-72
2022/03/28 09:21:00;;;;;;;33.38;21.15;;;;;;;-149.78;54.15;50000.13;5082352;28;20020;-71
2022/03/28 09:23:43;;;;;;;33.75;19.67;;;;;;;-149.78;52.05;49962.97;5083588;28;20020;-71
2022/03/28 09:26:21;;;;;;;32.42;19.48;;;;;;;-149.78;51.19;49959.06;5081990;28;20040;-72
2022/03/28 09:28:56;;;;;;;38.08;20.92;;;;;;;-149.78;53.96;50015.78;5079403;28;20056;-73
2022/03/28 09:31:35;;;;;;;35.65;20.17;;;;;;;-149.78;58.24;50064.66;5089062;28;20028;-73
2022/03/28 09:34:19;;;;;;;33.47;20.88;;;;;;;-149.78;57.96;50037.28;5093218;28;20391;-72
2022/03/28 09:36:51;;;;;;;39.08;20.88;;;;;;;-149.78;58.01;50025.56;5071014;28;20124;-73
2022/03/28 09:39:24;;;;;;;36.20;21.33;;;;;;;-149.78;60.52;50084.22;5072718;28;20040;-72
2022/03/28 09:42:05;;;;;;;35.30;20.55;;;;;;;-149.78;63.20;50103.78;5072804;28;20520;-72
2022/03/28 09:44:45;;;;;;;38.38;21.52;;;;;;;-149.78;68.86;50140.94;5071727;28;20035;-72
2022/03/28 09:47:22;;;;;;;38.17;21.48;;;;;;;-149.78;71.63;50135.06;5073092;28;20123;-72
2022/03/28 09:49:52;;;;;;;41.03;20.65;;;;;;;-149.78;75.58;50092.03;5079987;28;20035;-72
2022/03/28 09:52:20;;;;;;;39.92;20.77;;;;;;;-149.78;71.50;50115.50;5084486;28;20081;-72
2022/03/28 09:54:54;;;;;;;39.83;21.70;;;;;;;-149.78;63.85;50072.50;5084591;28;20035;-72
2022/03/28 09:57:31;;;;;;;39.53;21.60;;;;;;;-149.78;57.61;50029.47;5065730;28;20036;-72
2022/03/28 10:00:15;;;;;;;35.95;20.55;;;;;;;-149.78;51.37;49968.84;5078163;28;20035;-73
2022/03/28 10:02:41;;;;;;;34.65;20.48;;;;;;;-149.78;51.49;49982.53;5072285;28;20051;-72
2022/03/28 10:05:08;;;;;;;39.85;20.45;;;;;;;-149.78;48.07;49990.34;5071131;28;20123;-73
2022/03/28 10:07:33;;;;;;;31.98;19.98;;;;;;;-149.78;49.03;49951.25;5072593;28;20123;-73
2022/03/28 10:10:00;;;;;;;35.17;20.25;;;;;;;-149.78;48.76;49951.25;5072470;28;20036;-74
2022/03/28 10:12:26;;;;;;;35.70;19.20;;;;;;;-149.78;46.83;49935.59;5072337;28;20032;-73
2022/03/28 10:14:57;;;;;;;30.92;19.60;;;;;;;-149.78;45.58;49918.00;5070729;28;20395;-73
2022/03/28 10:17:26;;;;;;;34.72;19.25;;;;;;;-149.78;44.45;49919.94;5074895;28;20042;-73
2022/03/28 10:19:52;;;;;;;35.45;19.98;;;;;;;-149.78;43.33;49888.66;5081685;28;20020;-73
2022/03/28 10:22:24;;;;;;;30.45;19.30;;;;;;;-149.78;45.06;49959.06;5083717;28;20399;-73
2022/03/28 10:24:52;;;;;;;30.95;19.88;;;;;;;-149.78;45.10;49939.50;5085170;28;20035;-73
2022/03/28 10:27:18;;;;;;;29.73;19.35;;;;;;;-149.78;43.95;49869.13;5082628;28;20060;-73
2022/03/28 10:29:44;;;;;;;32.20;20.20;;;;;;;-149.78;43.31;49914.09;5080039;28;20084;-72
2022/03/28 10:32:20;;;;;;;32.83;20.67;;;;;;;-149.78;43.25;49927.78;5075567;28;20104;-72
2022/03/28 10:34:49;;;;;;;31.63;19.95;;;;;;;-149.78;43.54;49939.50;5070988;28;20039;-72
2022/03/28 10:37:40;;;;;;;34.67;20.73;;;;;;;-149.78;47.30;49998.19;5084416;28;20036;-72
2022/03/28 10:40:12;;;;;;;32.90;21.30;;;;;;;-149.78;50.25;49998.19;5085791;28;20036;-71
2022/03/28 10:42:46;;;;;;;33.50;20.75;;;;;;;-149.78;52.85;50035.34;5087047;28;20036;-72
2022/03/28 10:45:16;;;;;;;34.83;20.85;;;;;;;-149.78;53.30;50076.41;5071797;28;20028;-71
2022/03/28 10:47:43;;;;;;;35.58;21.73;;;;;;;-149.78;55.27;50045.09;5075372;28;20024;-72
2022/03/28 10:50:17;;;;;;;42.95;22.75;;;;;;;-149.78;57.03;50099.88;5091551;28;20038;-72
2022/03/28 10:53:11;;;;;;;38.00;21.40;;;;;;;-149.78;60.45;50088.13;5092063;28;20078;-72
2022/03/28 10:55:50;;;;;;;40.50;22.15;;;;;;;-149.78;58.91;50041.19;5083414;28;20044;-72
2022/03/28 10:58:19;;;;;;;42.83;22.77;;;;;;;-149.78;57.65;50025.56;5076774;28;20036;-73